| Date | Time | Temp. (oF) | Dew Point (oF) | Rel. Hum. (%) | Press. (in.) | Wind Dir. (deg.) | Wind Speed (mph) | Hourly Rainfall (i n.) |
|
|---|---|---|---|---|---|---|---|---|---|
| 1 | 08/11 | 24:00 | 71 | 55 | 59 | 30.00 | 140 | 0 | 0.00 |
| 2 | 08/10 | 23:00 | 73 | 56 | 56 | 30.02 | 140 | 0 | 0.00 |
| 3 | 08/10 | 22:00 | 71 | 54 | 57 | 30.05 | 140 | 0 | 0.00 |
| 4 | 08/10 | 21:00 | 72 | 54 | 55 | 29.99 | 140 | 0 | 0.00 |
| 5 | 08/10 | 20:00 | 75 | 54 | 49 | 30.00 | 140 | 1 | 0.00 |
| 6 | 08/10 | 19:00 | 77 | 52 | 43 | 30.01 | 120 | 2 | 0.00 |
| 7 | 08/10 | 18:00 | 77 | 51 | 41 | 30.00 | 110 | 4 | 0.00 |
| 8 | 08/10 | 17:00 | 78 | 50 | 39 | 29.99 | 140 | 1 | 0.00 |
| 9 | 08/10 | 16:00 | 78 | 50 | 38 | 29.99 | 130 | 4 | 0.00 |
| 10 | 08/10 | 15:00 | 81 | 48 | 33 | 30.03 | 270 | 2 | 0.00 |
| 11 | 08/10 | 14:00 | 81 | 48 | 33 | 30.03 | 170 | 2 | 0.00 |
| 12 | 08/10 | 13:00 | 78 | 47 | 35 | 30.06 | 110 | 6 | 0.00 |
| 13 | miss | miss | miss | miss | miss | miss | miss | miss | |
| 14 | 08/10 | 10:37 | 69 | 46 | 44 | 30.09 | 170 | 4 | 0.00 |
| 15 | 08/10 | 10:00 | 68 | 45 | 45 | 30.09 | 130 | 4 | 0.00 |
| 16 | 08/10 | 09:00 | 64 | 50 | 62 | 30.08 | 30 | 0 | 0.00 |
| 17 | 08/10 | 08:00 | 59 | 52 | 78 | 30.07 | 20 | 0 | 0.00 |
| 18 | 08/10 | 07:00 | 59 | 51 | 76 | 30.07 | 20 | 0 | 0.00 |
| 19 | 08/10 | 06:00 | 57 | 51 | 81 | 30.11 | 20 | 0 | 0.00 |
| 20 | 08/10 | 05:00 | 58 | 51 | 79 | 30.07 | 20 | 0 | 0.00 |
| 21 | 08/10 | 04:00 | 58 | 51 | 79 | 30.06 | 20 | 0 | 0.00 |
| 22 | 08/10 | 03:00 | 59 | 51 | 77 | 30.05 | 20 | 0 | 0.00 |
| 23 | 08/10 | 02:00 | 59 | 50 | 74 | 30.06 | 20 | 1 | 0.00 |
| 24 | 08/10 | 01:00 | 60 | 50 | 70 | 30.08 | 20 | 0 | 0.00 |